Terminal Aerodrome Forecast
Issued by NWS

Home | Current Version | Previous Version | Text Only | Print | Product List | Glossary On
Versions: 1 2 3 4 5 6 7 8 9 10 11 12 13 14 15 16 17 18 19 20 21 22 23 24 25
000
FTUS43 KMKX 241120
TAFENW
TAF
KENW 241120Z 2412/2512 11010KT P6SM OVC050
     FM241500 13018G24KT P6SM OVC120
     FM242100 12018G25KT P6SM -SHRA OVC035
     FM250200 10012KT P6SM -RA OVC025
     FM250400 10010KT 4SM -RA OVC025
     FM250900 05007KT 4SM -RA OVC007
     FM251100 36007KT P6SM OVC007=

USA.gov is the U.S. government's official web portal to all federal, state and local government web resources and services.